Time;durP1;ratioP1;P1;durP2;ratioP2;P2;SDS_P1;SDS_P2;PMS_P1;PMS_P2;Temp;Humidity;BMP_temperature;BMP_pressure;BME280_temperature;BME280_humidity;BME280_pressure;Samples;Min_cycle;Max_cycle;Signal;HPM_P1;HPM_P2
2021/04/27 00:02:00;;;;;;;5.40;3.60;;;;;;;6.46;47.76;95081.56;5072779;28;20048;-47
2021/04/27 00:04:27;;;;;;;5.65;3.65;;;;;;;6.43;48.15;95078.75;5055310;28;20049;-45
2021/04/27 00:06:53;;;;;;;6.47;3.30;;;;;;;6.19;48.13;95069.41;5053451;28;20118;-46
2021/04/27 00:09:20;;;;;;;6.97;4.05;;;;;;;6.05;49.16;95066.97;5053266;28;20148;-44
2021/04/27 00:11:46;;;;;;;6.38;3.85;;;;;;;6.26;49.70;95060.84;5052449;28;20045;-44
2021/04/27 00:14:12;;;;;;;5.82;3.33;;;;;;;6.20;48.46;95059.44;5053241;28;20053;-44
2021/04/27 00:16:39;;;;;;;5.78;3.85;;;;;;;6.58;46.88;95056.66;5053123;28;20075;-48
2021/04/27 00:19:05;;;;;;;8.15;4.38;;;;;;;6.30;49.17;95051.00;5052830;28;20107;-46
2021/04/27 00:21:32;;;;;;;5.95;3.97;;;;;;;6.09;49.50;95051.78;5052341;28;20045;-46
2021/04/27 00:23:58;;;;;;;8.23;3.60;;;;;;;5.82;50.12;95039.56;5051411;28;20049;-46
2021/04/27 00:26:29;;;;;;;6.05;3.72;;;;;;;6.27;48.16;95038.22;5053208;28;20040;-45
2021/04/27 00:28:55;;;;;;;9.15;3.80;;;;;;;6.25;47.89;95041.25;5053081;28;20064;-45
2021/04/27 00:31:22;;;;;;;11.27;4.53;;;;;;;6.09;48.30;95037.56;5052957;28;20051;-46
2021/04/27 00:33:48;;;;;;;9.65;4.07;;;;;;;6.30;47.89;95035.69;5052288;28;20053;-46
2021/04/27 00:36:15;;;;;;;7.80;3.75;;;;;;;6.58;47.02;95027.09;5052898;28;20059;-46
2021/04/27 00:38:41;;;;;;;10.65;3.72;;;;;;;6.61;46.77;95029.13;5052629;28;20490;-48
2021/04/27 00:41:09;;;;;;;5.95;3.88;;;;;;;6.06;49.32;95019.41;5052425;28;20126;-49
2021/04/27 00:43:35;;;;;;;8.05;3.67;;;;;;;6.16;48.79;95021.72;5051610;28;20045;-45
2021/04/27 00:46:02;;;;;;;7.85;4.25;;;;;;;5.65;50.78;95022.75;5053283;28;20053;-46
2021/04/27 00:48:28;;;;;;;6.50;3.92;;;;;;;5.62;50.94;95029.53;5052603;28;20049;-44
2021/04/27 00:50:55;;;;;;;7.55;3.67;;;;;;;5.54;50.04;95025.00;5052199;28;20079;-46
2021/04/27 00:53:22;;;;;;;8.48;4.43;;;;;;;5.66;50.65;95022.44;5051660;28;20053;-47
2021/04/27 00:55:48;;;;;;;6.15;4.07;;;;;;;5.46;51.87;95023.13;5068081;28;20052;-46
2021/04/27 00:58:16;;;;;;;8.52;3.95;;;;;;;5.19;52.38;95022.44;5072406;28;20401;-47
2021/04/27 01:00:43;;;;;;;6.72;3.83;;;;;;;5.15;52.20;95018.81;5070832;28;20076;-50
2021/04/27 01:03:09;;;;;;;9.02;4.15;;;;;;;5.29;52.67;95019.41;5051843;28;20045;-47
2021/04/27 01:05:38;;;;;;;5.70;3.72;;;;;;;5.21;53.07;95022.13;5052023;28;20049;-51
2021/04/27 01:08:26;;;;;;;7.00;4.20;;;;;;;5.21;53.10;95017.53;5052686;28;20057;-50
2021/04/27 01:11:06;;;;;;;6.28;3.88;;;;;;;5.14;51.96;95012.69;5052428;28;20064;-49
2021/04/27 01:13:43;;;;;;;6.50;3.85;;;;;;;5.09;53.82;95017.41;5051005;28;20114;-47
2021/04/27 01:16:12;;;;;;;6.78;4.32;;;;;;;5.07;52.61;95016.94;5052487;28;20502;-47
2021/04/27 01:18:43;;;;;;;8.60;4.22;;;;;;;5.48;50.81;95010.19;5052798;28;20485;-48
2021/04/27 01:21:13;;;;;;;8.02;4.15;;;;;;;4.97;52.91;94995.84;5051646;28;20048;-51
2021/04/27 01:23:56;;;;;;;8.70;4.65;;;;;;;5.17;53.19;95000.53;5063466;28;20559;-47
2021/04/27 01:26:39;;;;;;;7.93;4.53;;;;;;;5.32;53.16;95005.34;5072166;28;20052;-47
2021/04/27 01:29:08;;;;;;;6.55;4.55;;;;;;;4.99;53.82;94994.41;5071709;28;20281;-50
2021/04/27 01:31:37;;;;;;;8.52;4.57;;;;;;;4.99;54.13;94993.63;5066383;28;20053;-47
2021/04/27 01:34:05;;;;;;;7.43;4.82;;;;;;;5.02;54.72;94999.13;5051798;28;20044;-47
2021/04/27 01:36:35;;;;;;;7.53;5.03;;;;;;;5.08;54.03;95002.44;5051028;28;20049;-49
2021/04/27 01:39:05;;;;;;;11.55;5.03;;;;;;;5.00;54.65;95000.56;5052549;28;20131;-47
2021/04/27 01:41:34;;;;;;;8.82;4.80;;;;;;;4.89;55.22;95000.13;5072339;28;20062;-48
2021/04/27 01:44:03;;;;;;;9.93;5.28;;;;;;;5.17;52.94;95011.25;5065941;28;20052;-47
2021/04/27 01:46:29;;;;;;;10.13;5.10;;;;;;;4.71;55.83;95004.69;5051881;28;20045;-45
2021/04/27 01:48:56;;;;;;;7.43;4.65;;;;;;;4.86;55.45;95012.25;5050107;28;20457;-46
2021/04/27 01:51:25;;;;;;;10.23;5.30;;;;;;;4.81;55.16;95009.75;5050933;28;20124;-49
2021/04/27 01:54:11;;;;;;;9.73;5.22;;;;;;;5.09;53.75;95012.06;5053186;28;20049;-48
2021/04/27 01:56:37;;;;;;;10.70;5.30;;;;;;;5.02;55.27;95011.75;5071848;28;20390;-48
2021/04/27 01:59:05;;;;;;;11.75;5.70;;;;;;;5.05;55.30;95008.44;5071422;28;20052;-46
2021/04/27 02:01:36;;;;;;;10.48;5.25;;;;;;;5.22;53.23;95005.69;5065496;28;20051;-48
2021/04/27 02:04:03;;;;;;;9.05;5.47;;;;;;;4.91;55.17;95003.28;5067288;28;20119;-46
2021/04/27 02:06:43;;;;;;;7.25;5.38;;;;;;;4.72;55.39;95011.66;5050073;28;20127;-46
2021/04/27 02:09:12;;;;;;;11.90;6.68;;;;;;;4.77;56.03;95003.44;5049672;28;20111;-46
2021/04/27 02:11:50;;;;;;;8.80;5.40;;;;;;;4.75;55.72;95004.88;5049148;28;20048;-47
2021/04/27 02:14:19;;;;;;;11.25;5.55;;;;;;;4.55;57.09;94995.56;5060101;28;20049;-49
2021/04/27 02:16:58;;;;;;;10.65;6.10;;;;;;;4.44;57.80;95006.63;5051450;28;20045;-46
2021/04/27 02:19:29;;;;;;;9.63;6.40;;;;;;;4.63;56.58;95006.28;5054049;28;20090;-48
2021/04/27 02:22:15;;;;;;;8.15;5.80;;;;;;;4.55;57.04;95004.41;5054501;28;20049;-46
2021/04/27 02:24:50;;;;;;;10.48;5.68;;;;;;;4.49;57.04;95005.69;5053606;28;20069;-47
2021/04/27 02:27:17;;;;;;;9.02;6.25;;;;;;;4.37;56.27;95006.31;5053893;28;20052;-46
2021/04/27 02:29:46;;;;;;;10.98;6.05;;;;;;;4.30;57.27;95000.63;5054500;28;20077;-49
2021/04/27 02:32:17;;;;;;;10.75;6.20;;;;;;;4.14;57.82;94999.53;5054155;28;20143;-48
2021/04/27 02:34:44;;;;;;;12.35;6.50;;;;;;;4.22;58.33;95002.22;5054232;28;20053;-48
2021/04/27 02:37:16;;;;;;;9.55;6.10;;;;;;;4.51;57.17;95000.00;5053734;28;20110;-47
2021/04/27 02:39:46;;;;;;;8.75;5.93;;;;;;;4.20;57.57;94992.91;5054139;28;20049;-46
2021/04/27 02:42:13;;;;;;;12.98;7.63;;;;;;;4.32;57.13;94990.41;5054520;28;20045;-44
2021/04/27 02:44:52;;;;;;;10.25;5.63;;;;;;;4.15;57.35;94990.38;5054885;28;20506;-46
2021/04/27 02:47:51;;;;;;;9.10;5.90;;;;;;;4.49;55.96;94986.94;5021089;28;20674;-46
2021/04/27 02:50:18;;;;;;;11.48;5.97;;;;;;;4.19;57.97;94988.66;5053416;28;20132;-45
2021/04/27 02:52:45;;;;;;;10.15;5.97;;;;;;;4.20;57.12;94988.34;5053881;28;20044;-49
2021/04/27 02:55:13;;;;;;;9.68;5.13;;;;;;;4.02;57.45;94983.28;5061780;28;20044;-45
2021/04/27 02:57:40;;;;;;;9.60;6.25;;;;;;;4.12;57.45;94974.94;5074186;28;20436;-46
2021/04/27 03:00:08;;;;;;;13.23;6.50;;;;;;;3.99;57.17;94968.63;5074945;28;20466;-45
2021/04/27 03:02:41;;;;;;;10.15;5.47;;;;;;;4.28;56.36;94978.72;5069545;28;20496;-48
2021/04/27 03:05:09;;;;;;;7.97;5.82;;;;;;;3.88;57.99;94968.16;5053400;28;20102;-43
2021/04/27 03:07:36;;;;;;;8.60;5.95;;;;;;;3.72;59.03;94964.34;5054521;28;20056;-45
2021/04/27 03:10:03;;;;;;;8.77;5.85;;;;;;;3.67;58.59;94961.81;5053191;28;20045;-48
2021/04/27 03:12:30;;;;;;;9.98;5.97;;;;;;;3.84;57.46;94959.19;5052425;28;20067;-50
2021/04/27 03:14:58;;;;;;;9.25;5.65;;;;;;;3.84;58.94;94956.50;5073811;28;20128;-43
2021/04/27 03:17:34;;;;;;;9.52;5.93;;;;;;;4.19;56.84;94961.88;5074471;28;20150;-49
2021/04/27 03:20:01;;;;;;;9.10;6.50;;;;;;;3.81;59.95;94954.47;5073206;28;20060;-43
2021/04/27 03:22:34;;;;;;;9.13;5.88;;;;;;;3.70;58.85;94955.84;5067849;28;20045;-44
2021/04/27 03:25:03;;;;;;;10.35;5.32;;;;;;;3.61;59.76;94949.72;5086274;28;20055;-43
2021/04/27 03:27:31;;;;;;;11.38;5.93;;;;;;;3.76;59.10;94957.28;5095559;28;20044;-45
2021/04/27 03:30:00;;;;;;;8.27;5.72;;;;;;;3.83;59.45;94954.91;5093824;28;20455;-45
2021/04/27 03:32:28;;;;;;;8.90;5.65;;;;;;;3.59;59.31;94955.34;5088805;28;20059;-46
2021/04/27 03:34:54;;;;;;;9.93;5.68;;;;;;;3.64;60.11;94954.41;5052788;28;20552;-44
2021/04/27 03:37:21;;;;;;;13.43;5.80;;;;;;;3.47;60.61;94952.50;5052737;28;20075;-45
2021/04/27 03:39:48;;;;;;;12.13;6.00;;;;;;;3.55;60.48;94949.06;5051517;28;20057;-46
2021/04/27 03:42:14;;;;;;;8.93;5.82;;;;;;;3.61;58.77;94955.06;5092542;28;20135;-45
2021/04/27 03:44:42;;;;;;;10.35;6.05;;;;;;;3.85;58.18;94947.38;5070858;28;20581;-44
2021/04/27 03:47:09;;;;;;;7.85;6.07;;;;;;;3.71;58.44;94952.09;5069191;28;20117;-47
2021/04/27 03:49:36;;;;;;;8.35;5.97;;;;;;;3.55;60.06;94948.28;5056356;28;20068;-44
2021/04/27 03:52:03;;;;;;;9.57;6.07;;;;;;;3.47;59.74;94947.13;5071951;28;20393;-50
2021/04/27 03:54:31;;;;;;;9.10;5.82;;;;;;;3.80;58.38;94949.41;5072598;28;20040;-44
2021/04/27 03:56:58;;;;;;;10.25;5.85;;;;;;;3.79;57.90;94951.31;5074147;28;20494;-45
2021/04/27 03:59:24;;;;;;;9.20;5.97;;;;;;;3.34;60.53;94943.47;5072826;28;20339;-43
2021/04/27 04:01:51;;;;;;;8.05;5.63;;;;;;;3.47;60.61;94947.13;5058719;28;20387;-43
2021/04/27 04:04:18;;;;;;;10.20;5.47;;;;;;;3.34;60.03;94948.84;5053103;28;20098;-44
2021/04/27 04:07:10;;;;;;;9.25;6.20;;;;;;;3.41;60.09;94951.88;5053148;28;20088;-49
2021/04/27 04:09:55;;;;;;;10.20;6.03;;;;;;;3.48;59.84;94946.84;5053710;28;20045;-49
2021/04/27 04:12:25;;;;;;;11.27;6.15;;;;;;;3.40;59.26;94946.81;5053968;28;20691;-48
2021/04/27 04:14:53;;;;;;;10.40;6.28;;;;;;;3.44;59.39;94953.09;5053556;28;20506;-46
2021/04/27 04:17:31;;;;;;;8.32;5.97;;;;;;;3.35;59.97;94955.78;5054311;28;20468;-50
2021/04/27 04:19:58;;;;;;;9.52;5.75;;;;;;;3.55;58.72;94953.63;5052761;28;20053;-47
2021/04/27 04:22:30;;;;;;;9.73;5.93;;;;;;;3.41;60.53;94954.53;5052554;28;20045;-49
2021/04/27 04:25:05;;;;;;;7.93;5.82;;;;;;;3.75;58.09;94947.69;5052011;28;20071;-45
2021/04/27 04:27:32;;;;;;;8.65;5.95;;;;;;;3.22;61.06;94951.31;5064532;28;20053;-45
2021/04/27 04:30:22;;;;;;;10.27;6.00;;;;;;;3.37;59.17;94950.88;5066889;28;20402;-46
2021/04/27 04:32:49;;;;;;;8.82;5.60;;;;;;;3.24;59.83;94949.13;5052870;28;20474;-50
2021/04/27 04:35:34;;;;;;;9.27;5.78;;;;;;;3.27;60.71;94945.81;5053192;28;20049;-46
2021/04/27 04:38:37;;;;;;;12.93;6.13;;;;;;;3.25;61.39;94951.50;5011110;28;20065;-50
2021/04/27 04:41:22;;;;;;;8.52;5.57;;;;;;;3.38;61.01;94949.81;5067339;28;20071;-46
2021/04/27 04:44:24;;;;;;;11.27;5.80;;;;;;;3.33;60.06;94949.16;5030613;28;20368;-45
2021/04/27 04:47:08;;;;;;;9.88;5.70;;;;;;;3.60;59.81;94950.78;5051546;28;20060;-51
2021/04/27 04:49:38;;;;;;;7.97;5.78;;;;;;;3.45;59.85;94950.13;5056986;28;20045;-48
2021/04/27 04:52:23;;;;;;;10.32;5.50;;;;;;;3.45;59.48;94952.03;5072381;28;20389;-46
2021/04/27 04:55:24;;;;;;;8.48;5.63;;;;;;;3.57;60.03;94951.41;5061713;28;20083;-46
2021/04/27 04:58:13;;;;;;;13.13;5.97;;;;;;;3.80;58.57;94955.53;5071552;28;20075;-51
2021/04/27 05:00:54;;;;;;;9.90;5.10;;;;;;;3.57;59.22;94952.19;5068255;28;20057;-46
2021/04/27 05:03:32;;;;;;;9.23;5.93;;;;;;;3.98;57.70;94948.34;5052607;28;20123;-47
2021/04/27 05:06:18;;;;;;;9.45;5.50;;;;;;;3.76;60.80;94951.91;5052742;28;20053;-46
2021/04/27 05:09:08;;;;;;;10.48;6.32;;;;;;;3.96;58.51;94950.53;5052580;28;20048;-48
2021/04/27 05:11:54;;;;;;;10.07;5.97;;;;;;;3.96;58.70;94954.00;5071222;28;20058;-46
2021/04/27 05:14:38;;;;;;;9.20;5.90;;;;;;;4.08;59.10;94960.63;5066817;28;20131;-49
2021/04/27 05:17:07;;;;;;;10.02;5.53;;;;;;;3.98;58.48;94956.38;5052840;28;20132;-47
2021/04/27 05:19:35;;;;;;;8.63;5.60;;;;;;;4.31;58.35;94959.34;5052726;28;20529;-48
2021/04/27 05:22:03;;;;;;;7.78;5.78;;;;;;;4.28;58.48;94951.16;5057584;28;20048;-47
2021/04/27 05:24:31;;;;;;;9.45;5.93;;;;;;;4.76;56.12;94948.28;5081331;28;20036;-46
2021/04/27 05:27:08;;;;;;;10.60;6.10;;;;;;;4.89;55.40;94941.94;5084904;28;20428;-46
2021/04/27 05:29:36;;;;;;;10.25;6.03;;;;;;;4.70;56.39;94944.19;5071931;28;20485;-48
2021/04/27 05:32:03;;;;;;;9.50;6.50;;;;;;;4.58;56.67;94946.72;5061915;28;20060;-49
2021/04/27 05:34:30;;;;;;;10.50;5.65;;;;;;;4.49;56.78;94944.06;5052248;28;20114;-46
2021/04/27 05:36:56;;;;;;;7.75;6.00;;;;;;;4.72;55.96;94943.88;5052081;28;20056;-47
2021/04/27 05:39:23;;;;;;;8.45;5.65;;;;;;;4.82;55.15;94943.53;5051845;28;20520;-45
2021/04/27 05:41:49;;;;;;;9.13;6.00;;;;;;;4.77;56.21;94954.41;5067270;28;20049;-47
2021/04/27 05:44:15;;;;;;;12.27;6.00;;;;;;;4.68;55.26;94949.88;5054936;28;20060;-46
2021/04/27 05:46:42;;;;;;;8.63;5.78;;;;;;;4.71;56.38;94953.00;5050087;28;20049;-47
2021/04/27 05:49:08;;;;;;;12.13;6.43;;;;;;;4.44;56.26;94946.91;5051367;28;20132;-48
2021/04/27 05:51:35;;;;;;;10.35;5.93;;;;;;;4.69;56.35;94945.31;5050145;28;20088;-47
2021/04/27 05:54:02;;;;;;;13.02;6.63;;;;;;;4.52;56.22;94942.63;5067356;28;20401;-46
2021/04/27 05:56:28;;;;;;;10.27;6.57;;;;;;;4.69;56.03;94943.41;5071706;28;20048;-47
2021/04/27 05:58:55;;;;;;;8.75;5.95;;;;;;;4.75;55.87;94941.34;5071576;28;20060;-47
2021/04/27 06:01:22;;;;;;;9.68;6.03;;;;;;;4.76;55.93;94947.50;5069723;28;20068;-47
2021/04/27 06:03:49;;;;;;;9.40;6.78;;;;;;;4.80;56.46;94943.06;5053107;28;20556;-46
2021/04/27 06:06:15;;;;;;;9.75;5.72;;;;;;;4.89;55.70;94952.66;5071218;28;20048;-47
2021/04/27 06:08:42;;;;;;;13.80;6.45;;;;;;;4.92;55.38;94951.22;5060883;28;20064;-46
2021/04/27 06:11:08;;;;;;;9.20;6.10;;;;;;;5.02;55.83;94950.09;5075934;28;20109;-43
2021/04/27 06:13:35;;;;;;;10.88;6.05;;;;;;;4.93;56.58;94948.22;5072462;28;20088;-47
2021/04/27 06:16:02;;;;;;;12.63;6.18;;;;;;;4.89;55.93;94943.84;5052143;28;20118;-50
2021/04/27 06:18:29;;;;;;;11.25;6.55;;;;;;;5.06;56.00;94938.41;5051854;28;20060;-47
2021/04/27 06:20:55;;;;;;;9.65;6.18;;;;;;;5.18;55.57;94936.97;5051182;28;20045;-45
2021/04/27 06:23:23;;;;;;;11.40;6.32;;;;;;;5.14;56.27;94942.19;5067057;28;20036;-48
2021/04/27 06:25:49;;;;;;;11.65;6.47;;;;;;;5.15;55.40;94936.47;5091373;28;20169;-45
2021/04/27 06:28:16;;;;;;;14.32;6.30;;;;;;;5.16;55.84;94931.91;5090879;28;20048;-45
2021/04/27 06:30:43;;;;;;;8.77;6.05;;;;;;;5.20;56.03;94930.16;5066247;28;20413;-50
2021/04/27 06:33:10;;;;;;;11.93;6.30;;;;;;;5.12;57.01;94930.97;5084618;28;20170;-48
2021/04/27 06:35:37;;;;;;;10.38;6.15;;;;;;;5.36;55.68;94930.38;5091116;28;20113;-46
2021/04/27 06:38:05;;;;;;;10.50;6.53;;;;;;;5.33;55.84;94937.22;5091058;28;20063;-47
2021/04/27 06:40:32;;;;;;;11.00;6.50;;;;;;;5.61;55.47;94931.38;5049529;28;20129;-47
2021/04/27 06:42:58;;;;;;;10.32;6.30;;;;;;;5.58;55.63;94926.66;5058880;28;20477;-47
2021/04/27 06:45:26;;;;;;;8.77;6.60;;;;;;;5.76;55.90;94930.81;5071048;28;20049;-47
2021/04/27 06:47:53;;;;;;;11.25;7.13;;;;;;;5.95;54.15;94916.97;5070472;28;20044;-47
2021/04/27 06:50:21;;;;;;;10.75;6.68;;;;;;;5.68;54.33;94923.59;5070107;28;20124;-46
2021/04/27 06:52:53;;;;;;;9.40;6.75;;;;;;;6.05;54.92;94923.88;5068591;28;20128;-48
2021/04/27 06:55:19;;;;;;;11.77;7.30;;;;;;;6.30;53.32;94917.50;5064911;28;20147;-49
2021/04/27 06:57:46;;;;;;;12.93;7.45;;;;;;;6.08;54.05;94920.53;5070199;28;20056;-49
2021/04/27 07:00:13;;;;;;;12.85;6.78;;;;;;;6.31;54.13;94920.97;5069124;28;20053;-47
2021/04/27 07:02:39;;;;;;;10.55;7.00;;;;;;;6.28;53.88;94925.09;5068044;28;20482;-44
2021/04/27 07:05:07;;;;;;;9.65;6.38;;;;;;;6.55;53.94;94922.94;5074260;28;20440;-46
2021/04/27 07:07:33;;;;;;;10.48;6.78;;;;;;;6.61;53.58;94924.31;5074733;28;20109;-47
2021/04/27 07:09:59;;;;;;;9.77;7.30;;;;;;;6.47;53.98;94921.16;5074683;28;20056;-45
2021/04/27 07:12:27;;;;;;;8.73;6.68;;;;;;;6.51;54.03;94917.44;5073994;28;20127;-47
2021/04/27 07:14:53;;;;;;;9.73;7.22;;;;;;;6.79;53.59;94914.97;5071650;28;20054;-50
2021/04/27 07:17:20;;;;;;;10.43;6.80;;;;;;;6.75;53.64;94914.03;5072516;28;20070;-47
2021/04/27 07:19:47;;;;;;;9.77;6.82;;;;;;;6.99;52.84;94916.00;5069821;28;20051;-51
2021/04/27 07:22:13;;;;;;;11.20;7.18;;;;;;;6.96;52.47;94915.91;5075083;28;20049;-50
2021/04/27 07:24:39;;;;;;;9.80;7.00;;;;;;;6.93;54.12;94911.19;5072953;28;20044;-53
2021/04/27 07:27:06;;;;;;;9.55;6.72;;;;;;;7.01;53.13;94915.66;5072240;28;20467;-47
2021/04/27 07:29:33;;;;;;;9.18;6.80;;;;;;;7.15;52.54;94913.47;5067153;28;20053;-48
2021/04/27 07:32:00;;;;;;;9.43;6.70;;;;;;;7.34;52.64;94912.09;5074753;28;20040;-50
2021/04/27 07:34:26;;;;;;;10.38;6.88;;;;;;;7.49;51.99;94916.81;5074342;28;20521;-51
2021/04/27 07:36:53;;;;;;;10.30;6.47;;;;;;;7.77;51.90;94914.25;5074328;28;20044;-48
2021/04/27 07:39:20;;;;;;;10.57;6.45;;;;;;;7.70;51.92;94906.72;5072860;28;20051;-50
2021/04/27 07:41:46;;;;;;;9.05;6.70;;;;;;;7.80;51.71;94910.06;5073899;28;20098;-51
2021/04/27 07:44:13;;;;;;;10.90;6.80;;;;;;;7.54;51.69;94903.16;5067748;28;20051;-50
2021/04/27 07:46:40;;;;;;;13.52;9.15;;;;;;;7.66;51.81;94905.03;5078108;28;20048;-50
2021/04/27 07:49:07;;;;;;;11.32;7.28;;;;;;;7.82;51.69;94907.81;5075797;28;20055;-52
2021/04/27 07:51:35;;;;;;;11.95;7.47;;;;;;;7.95;52.35;94903.97;5073992;28;20060;-49
2021/04/27 07:54:01;;;;;;;10.55;7.28;;;;;;;8.07;51.26;94903.97;5067716;28;20523;-50
2021/04/27 07:56:29;;;;;;;15.75;7.45;;;;;;;8.12;51.50;94900.22;5075578;28;20048;-50
2021/04/27 07:58:58;;;;;;;13.32;7.45;;;;;;;8.26;50.64;94895.25;5073807;28;20125;-49
2021/04/27 08:01:27;;;;;;;10.38;7.25;;;;;;;8.36;49.87;94891.28;5076694;28;20117;-48
2021/04/27 08:03:53;;;;;;;13.25;7.38;;;;;;;8.42;51.45;94893.44;5069079;28;20041;-51
2021/04/27 08:06:21;;;;;;;12.63;7.80;;;;;;;8.37;50.59;94884.78;5072396;28;20131;-48
2021/04/27 08:08:47;;;;;;;10.07;7.60;;;;;;;8.59;50.44;94895.03;5086303;28;20045;-50
2021/04/27 08:11:15;;;;;;;10.23;7.38;;;;;;;8.92;49.06;94890.47;5077986;28;20432;-48
2021/04/27 08:13:41;;;;;;;10.13;7.03;;;;;;;8.95;49.09;94887.88;5068825;28;20105;-51
2021/04/27 08:16:09;;;;;;;9.18;7.43;;;;;;;8.92;49.96;94888.56;5082805;28;20048;-48
2021/04/27 08:18:37;;;;;;;11.82;7.05;;;;;;;8.85;49.82;94878.38;5086086;28;20072;-50
2021/04/27 08:21:07;;;;;;;13.20;7.25;;;;;;;8.91;48.78;94892.41;5071359;28;20127;-47
2021/04/27 08:23:38;;;;;;;8.18;7.15;;;;;;;9.45;47.95;94883.66;5071823;28;20055;-47
2021/04/27 08:26:08;;;;;;;12.48;7.75;;;;;;;9.31;49.09;94889.53;5067955;28;20494;-46
2021/04/27 08:28:35;;;;;;;10.55;7.53;;;;;;;9.53;48.37;94890.81;5069175;28;20086;-48
2021/04/27 08:31:01;;;;;;;11.43;7.43;;;;;;;9.37;48.18;94887.34;5072385;28;20052;-47
2021/04/27 08:33:33;;;;;;;10.52;8.18;;;;;;;9.44;49.15;94889.44;5073575;28;20033;-46
2021/04/27 08:36:00;;;;;;;13.68;7.32;;;;;;;9.56;49.04;94887.41;5078295;28;20066;-51
2021/04/27 08:38:26;;;;;;;11.35;7.80;;;;;;;9.86;48.44;94897.72;5068726;28;20044;-48
2021/04/27 08:40:54;;;;;;;11.02;7.50;;;;;;;10.00;47.09;94889.13;5077830;28;20040;-51
2021/04/27 08:43:21;;;;;;;11.55;7.47;;;;;;;9.77;47.34;94886.34;5065818;28;20041;-49
2021/04/27 08:45:48;;;;;;;11.30;7.57;;;;;;;9.58;47.64;94893.25;5070904;28;20597;-49
2021/04/27 08:48:15;;;;;;;13.75;8.35;;;;;;;9.88;46.86;94894.66;5070008;28;20071;-46
2021/04/27 08:50:44;;;;;;;12.63;7.80;;;;;;;9.93;47.57;94881.66;5071602;28;20518;-47
2021/04/27 08:53:11;;;;;;;12.18;7.22;;;;;;;9.83;47.68;94883.00;5070564;28;20379;-52
2021/04/27 08:55:40;;;;;;;11.82;8.32;;;;;;;9.75;47.92;94875.09;5085541;28;20460;-46
2021/04/27 08:58:08;;;;;;;9.50;7.18;;;;;;;9.94;47.87;94877.03;5074088;28;20048;-50
2021/04/27 09:00:36;;;;;;;17.02;7.93;;;;;;;10.09;48.01;94876.22;5068025;28;20072;-47
2021/04/27 09:03:06;;;;;;;10.82;7.78;;;;;;;10.51;46.50;94876.31;5067788;28;20052;-47
2021/04/27 09:05:35;;;;;;;15.30;8.00;;;;;;;10.42;46.26;94873.03;5051898;28;20061;-49
2021/04/27 09:08:34;;;;;;;13.48;7.45;;;;;;;10.30;46.40;94862.38;5069421;28;20131;-48
2021/04/27 09:11:01;;;;;;;12.25;8.18;;;;;;;10.59;46.12;94862.91;5071355;28;20052;-51
2021/04/27 09:13:27;;;;;;;12.88;8.23;;;;;;;10.56;47.85;94861.72;5067985;28;20070;-49
2021/04/27 09:15:55;;;;;;;12.10;7.95;;;;;;;10.59;46.01;94863.69;5069718;28;20537;-51
2021/04/27 09:18:33;;;;;;;13.15;8.00;;;;;;;10.65;46.46;94856.84;5065264;28;20049;-52
2021/04/27 09:21:10;;;;;;;13.98;7.97;;;;;;;10.95;45.96;94861.63;5062685;28;20041;-49
2021/04/27 09:23:44;;;;;;;9.60;7.82;;;;;;;10.94;45.15;94852.75;5065186;28;20063;-52
2021/04/27 09:26:18;;;;;;;10.88;7.95;;;;;;;11.16;45.41;94866.66;5070933;28;20098;-53
2021/04/27 09:28:48;;;;;;;12.68;8.48;;;;;;;11.29;44.35;94849.06;5065337;28;20055;-50
2021/04/27 09:31:37;;;;;;;11.65;8.73;;;;;;;10.94;44.81;94850.03;5067875;28;20056;-51
2021/04/27 09:34:24;;;;;;;13.25;8.57;;;;;;;11.55;44.12;94850.22;5071165;28;20056;-50
2021/04/27 09:36:53;;;;;;;12.63;8.35;;;;;;;11.37;45.24;94853.44;5079802;28;20041;-51
2021/04/27 09:39:44;;;;;;;11.63;8.00;;;;;;;11.32;45.01;94844.84;5078526;28;20135;-50
2021/04/27 09:42:21;;;;;;;9.90;7.60;;;;;;;11.31;44.51;94848.69;5079128;28;20162;-51
2021/04/27 09:44:53;;;;;;;12.57;8.55;;;;;;;11.27;44.71;94839.72;5072011;28;20109;-46
2021/04/27 09:47:26;;;;;;;16.17;8.48;;;;;;;11.70;44.52;94841.16;5074371;28;20051;-49
2021/04/27 09:49:58;;;;;;;9.27;7.85;;;;;;;11.72;44.91;94840.78;5071507;28;20052;-48
2021/04/27 09:52:28;;;;;;;12.77;7.85;;;;;;;11.91;43.86;94849.59;5067215;28;20064;-47
2021/04/27 09:54:58;;;;;;;11.63;8.25;;;;;;;11.90;44.57;94839.16;5070571;28;20055;-47
2021/04/27 09:57:30;;;;;;;11.75;7.63;;;;;;;11.96;44.10;94840.41;5068983;28;20136;-46
2021/04/27 10:00:23;;;;;;;10.55;7.82;;;;;;;12.22;42.92;94847.69;5067666;28;20086;-47
2021/04/27 10:02:51;;;;;;;13.27;9.05;;;;;;;12.44;43.41;94842.50;5069309;28;20394;-48
2021/04/27 10:05:18;;;;;;;15.10;8.30;;;;;;;12.08;42.98;94839.38;5069984;28;20044;-46
2021/04/27 10:07:45;;;;;;;11.20;8.13;;;;;;;12.51;42.42;94831.72;5073912;28;20052;-48
2021/04/27 10:10:14;;;;;;;11.38;8.65;;;;;;;12.13;43.33;94834.41;5073236;28;20041;-46
2021/04/27 10:12:42;;;;;;;13.38;8.77;;;;;;;11.91;42.53;94833.34;5069515;28;20043;-48
2021/04/27 10:15:10;;;;;;;8.43;7.53;;;;;;;12.06;43.22;94831.63;5061804;28;20586;-50
2021/04/27 10:17:36;;;;;;;12.73;7.95;;;;;;;12.32;42.64;94827.28;5067640;28;20040;-48
2021/04/27 10:20:11;;;;;;;12.85;8.07;;;;;;;12.21;43.45;94827.13;5067176;28;20056;-49
2021/04/27 10:22:41;;;;;;;13.50;8.43;;;;;;;12.03;43.56;94828.84;5065959;28;20076;-50
2021/04/27 10:25:13;;;;;;;12.23;8.48;;;;;;;12.29;42.47;94826.06;5046952;28;20473;-48
2021/04/27 10:27:40;;;;;;;10.38;7.65;;;;;;;12.50;43.15;94819.31;5068890;28;20055;-49
2021/04/27 10:30:19;;;;;;;14.10;8.43;;;;;;;12.51;42.78;94820.88;5066806;28;21967;-49
2021/04/27 10:33:05;;;;;;;16.75;9.07;;;;;;;12.44;43.51;94808.00;5071886;28;20678;-47
2021/04/27 10:35:36;;;;;;;12.57;8.82;;;;;;;12.43;42.20;94813.81;5065930;28;20052;-48
2021/04/27 10:38:04;;;;;;;15.13;8.68;;;;;;;12.51;43.98;94810.81;5067452;28;20044;-48
2021/04/27 10:41:12;;;;;;;11.68;8.32;;;;;;;12.63;42.33;94804.34;5058344;28;20045;-45
2021/04/27 10:43:40;;;;;;;11.85;8.18;;;;;;;12.65;41.90;94798.56;5072760;28;20036;-46
2021/04/27 10:46:35;;;;;;;13.80;8.35;;;;;;;12.96;42.02;94800.75;5073633;28;20185;-48
2021/04/27 10:49:23;;;;;;;12.15;8.93;;;;;;;13.38;40.51;94791.41;5075001;28;20045;-46
2021/04/27 10:51:53;;;;;;;13.95;8.57;;;;;;;13.67;40.44;94795.09;5068239;28;20101;-48
2021/04/27 10:54:21;;;;;;;10.82;8.45;;;;;;;13.79;40.46;94780.41;5073753;28;20044;-46
2021/04/27 10:57:01;;;;;;;10.73;7.82;;;;;;;13.64;40.29;94779.53;5073916;28;20059;-46
2021/04/27 10:59:29;;;;;;;10.73;8.50;;;;;;;13.76;42.98;94778.47;5070264;28;20052;-51
2021/04/27 11:02:16;;;;;;;13.32;8.70;;;;;;;14.29;41.72;94775.16;5071344;28;20673;-50
2021/04/27 11:04:43;;;;;;;15.13;9.07;;;;;;;14.40;38.88;94772.50;5081459;28;20132;-50
2021/04/27 11:07:21;;;;;;;14.80;8.45;;;;;;;14.31;38.50;94785.69;5082571;28;20144;-53
2021/04/27 11:10:01;;;;;;;10.45;8.43;;;;;;;14.47;39.41;94775.25;5077339;28;20130;-48
2021/04/27 11:12:59;;;;;;;13.13;8.40;;;;;;;16.19;35.35;94788.81;5081038;28;20581;-46
2021/04/27 11:15:32;;;;;;;12.70;8.50;;;;;;;17.15;33.13;94779.28;5081312;28;20060;-48
2021/04/27 11:18:09;;;;;;;11.90;8.38;;;;;;;18.06;32.54;94775.31;5072910;28;20044;-50
2021/04/27 11:20:54;;;;;;;10.88;8.70;;;;;;;19.18;29.22;94773.44;5073787;28;20063;-52
2021/04/27 11:23:36;;;;;;;9.93;8.73;;;;;;;18.81;31.27;94772.41;5074616;28;20131;-51
2021/04/27 11:26:32;;;;;;;11.47;7.50;;;;;;;19.34;29.09;94770.06;5068917;28;20048;-52
2021/04/27 11:29:05;;;;;;;10.57;7.95;;;;;;;20.04;28.85;94766.47;5086698;28;20049;-54
2021/04/27 11:31:51;;;;;;;10.60;8.07;;;;;;;19.40;29.05;94765.63;5069419;28;20052;-54
2021/04/27 11:34:18;;;;;;;12.45;8.25;;;;;;;17.54;32.68;94770.75;5071843;28;20140;-48
2021/04/27 11:36:45;;;;;;;10.25;7.90;;;;;;;18.65;31.29;94764.00;5071564;28;20048;-51
2021/04/27 11:39:16;;;;;;;12.02;8.77;;;;;;;17.94;31.59;94765.69;5069450;28;20132;-51
2021/04/27 11:41:55;;;;;;;12.05;8.80;;;;;;;19.22;30.50;94774.16;5071604;28;20074;-54
2021/04/27 11:44:29;;;;;;;11.10;8.38;;;;;;;18.41;30.37;94761.19;5075247;28;20048;-47
2021/04/27 11:47:22;;;;;;;14.45;8.77;;;;;;;18.63;31.25;94760.91;5073227;28;20045;-50
2021/04/27 11:50:12;;;;;;;12.23;9.15;;;;;;;19.20;28.80;94751.84;5066338;28;20487;-49
2021/04/27 11:53:03;;;;;;;10.95;8.70;;;;;;;19.98;29.72;94760.69;5061915;28;20499;-50
2021/04/27 11:55:34;;;;;;;10.65;9.30;;;;;;;19.00;28.54;94759.22;5080892;28;20048;-53